Dawson Community Airport
KGDV : now visible

Airfield :











YOU CAN JOIN US ON...

 
LOGIN :

Register | Disclaimer

   EN    FR    IT 

 









Legend :    VFR   Marginal VFR   IFR   Intensive IFR   Very Intensive IFR
Visi :
Ceiling :
>= 8 km
>= 3000ft
5 to 8 km
1000 to 3000 ft
1500m to 5 km
500 to 1000 ft
800 to 1500m
200 to 500 ft
< 800m
< 200 ft
Symbols :   Thunderstorms  Fog  Heavy snow  Heavy precipitations  Wind > 20 kt






- Airport Elevation : 2458 ft


KGDV - Dawson Community

CURRENT METAR :
  • 200812Z AUTO 06004KT 10SM -SN OVC006 M01/M01 A2985 RMK AO2 UPE06SNB06 P0000 FZRANO

EXPIRED METARs :
  • 200756Z AUTO 05005KT 10SM UP OVC004 M01/M01 A2985 RMK AO2 UPE0658B21SNB0658E21 SLP138 P0000 T10111011 FZRANO
  • 200656Z AUTO 08003KT 10SM UP OVC004 M02/M02 A2987 RMK AO2 UPB49SNE49 SLP144 P0000 T10171017 410111128 FZRANO
  • 200646Z AUTO 06004KT 8SM -SN OVC004 M02/M02 A2987 RMK AO2 P0000 410111128 FZRANO
  • 200556Z AUTO 08005KT 6SM -SN BR OVC006 M02/M02 A2989 RMK AO2 SLP151 P0000 60000 T10171017 11011 21022 56012 FZRANO

TAF KGDV
Valid from the 20 at 06:00 until the 21 at 06:00 UTC


200521Z 2006/2106 14007KT 5SM -SHSN BKN008 OVC026
FM200900 VRB06KT 1 1/2SM -SHSNRA BR OVC003
FM201500 30015G22KT P6SM VCSH OVC015
FM201800 31016KT P6SM BKN040
FM210000 VRB06KT P6SM FEW050
KZLC FIR / North America



MET'MAP, your aeronautical weather chart ! - Copyright ORBIFLY December 2007 - Disclaimer

ORBIFLY MET'MAP TEAM :

Programming & Development : Alexandra Zaïnal
Concept & original design : Baudouin d'Aumeries
Assistance for programming : Marc-Olivier Méhu
Technical & hardware support : Manuel Goepfert

Contact : metmap@orbifly.com




SOURCES & CREDITS :

   NOAA       Earth
Advisory